Airfield :
LOGIN :

Register | Disclaimer

   EN    FR    IT 

 










Legend :    VFR   Marginal VFR   IFR   Intensive IFR   Very Intensive IFR
Visi :
Ceiling :
>= 8 km
>= 3000ft
5 to 8 km
1000 to 3000 ft
1500m to 5 km
500 to 1000 ft
800 to 1500m
200 to 500 ft
< 800m
< 200 ft
Symbols :   Thunderstorms  Fog  Heavy snow  Heavy precipitations  Wind > 20 kt
SIGMETs :     Misc.  Thunderstorms  Icing  Turbulence  Mountain Waves  Volcanic Ashes






- Airport Elevation : 219 ft
- IATA code : DNR


LFRD - Dinard

CURRENT METAR :
  • 112130Z AUTO 27016KT 6000 RA SCT023/// BKN049/// BKN068/// ///TCU 05/03 Q1009 TEMPO 25015G25KT 4000 SHRAGS BKN015TCU SCT020CB

EXPIRED METARs :
  • 112100Z AUTO 24010KT 9999 SCT036/// SCT058/// BKN120/// ///CB 04/03 Q1009 TEMPO 25015G25KT 4000 SHRAGS
  • 112030Z AUTO 24011KT 9999 ///CB 05/03 Q1009 TEMPO 25015G25KT 4000 SHRAGS
  • 112000Z AUTO 25010KT 9999 FEW029/// SCT034/// ///TCU 04/03 Q1008 TEMPO 25015G25KT 4000 SHRAGS BKN015TCU SCT020CB
  • 111930Z AUTO 25009KT 220V280 9999 SCT032/// BKN043/// BKN060/// ///TCU 05/03 Q1008 TEMPO 25015G25KT 4000 SHRAGS BKN015TCU SCT020CB
  • 111900Z AUTO 26010KT 9999 FEW036/// SCT100/// ///TCU 04/03 Q1008 TEMPO 25015G25KT 4000 SHRAGS BKN015TCU SCT020CB

TAF TAF LFRD
Valid from the 11 at 18:00 until the 12 at 18:00 UTC


111700Z 1118/1218 25012KT 9999 BKN030
TEMPO 1118/1124 25015G25KT 4000 SHRAGS BKN015TCU SCT020CB
BECMG 1204/1206 19012KT
TEMPO 1206/1212 5000 RA BKN005
BECMG 1206/1209 18015G25KT
TEMPO 1212/1215 3000 RA BKN010 BKN015TCU
BECMG 1214/1216 27020G30KT
PROB30
TEMPO 1215/1218 5000 SHRA
ATIS : +33 2 99 16 81 50



MET'MAP, your aeronautical weather chart ! - Copyright ORBIFLY December 2007 - Disclaimer

ORBIFLY MET'MAP TEAM :

Programming & Development : Alexandra Zaïnal
Concept & original design : Baudouin d'Aumeries
Assistance for programming : Marc-Olivier Méhu
Technical & hardware support : Manuel Goepfert

Contact : metmap@orbifly.com




SOURCES & CREDITS :

   NOAA